首页
METAR-TAF:

METAR-TAF

机场 :

Mount Clemens, 密歇根州, 美国

纬度: 42-37N, 经度: 082-50W, 海拔: 177米

当前天气观测

该预报发布于21分钟前的10:56 UTC
风速6节,风向
温度 13°C
湿度 100%
气压 1009 hPa
能見度: 16.1公里
阴天层高于900英尺

METAR: KMTC 161056Z AUTO 36006KT 10SM OVC009 13/13 A2979 RMK AO2 SLP091 T01280128 $

时间: 07:17 (11:17 UTC)

预报

该预报发布于12分钟前的11:05 UTC
预报有效从16日的 11点(UTC)到 17日的 15点(UTC)
风速6节,风向多变
能见度10公里或以上
多云层高于900英尺
成为
从 16日的 12点(UTC)到 16日的 13点(UTC)
风速6节,风向多变
能见度10公里或以上
多云层高于2000英尺
成为
从 16日的 20点(UTC)到 16日的 21点(UTC)
风速6节,风向北转东北
能见度10公里或以上
散云层高于4000英尺

TAF: KMTC 161105Z 1611/1715 VRB06KT 9999 BKN009 QNH2978INS BECMG 1612/1613 VRB06KT 9999 BKN020 QNH2980INS BECMG 1620/1621 02006KT 9999 SCT040 QNH2986INS TX18/1621Z TN11/1709Z

超过4000个机场的气象观测和天气预报(METAR&TAF报告)。

可查询的气象台以黄色和红色小点在地图上表示。

将鼠标移到小点上方,可查看气象台名称。

然后点击查看天气观测和预报。

如需切换地图:点击带黑十字的绿色按钮放大地图;点击带横线的绿色按钮缩小地图;或者点击绿色箭头查看邻近地区的地图。


METAR-TAF: